sensor_id;sensor_type;location;lat;lon;timestamp;temperature;humidity
2062;DHT22;11070;51.336;12.340;2023-04-15T00:00:35;7.40;99.90
2062;DHT22;11070;51.336;12.340;2023-04-15T00:03:01;7.30;99.90
2062;DHT22;11070;51.336;12.340;2023-04-15T00:05:30;7.30;99.90
2062;DHT22;11070;51.336;12.340;2023-04-15T00:07:57;7.30;99.90
2062;DHT22;11070;51.336;12.340;2023-04-15T00:10:24;7.30;99.90
2062;DHT22;11070;51.336;12.340;2023-04-15T00:12:50;7.30;99.90
2062;DHT22;11070;51.336;12.340;2023-04-15T00:15:16;7.20;99.90
2062;DHT22;11070;51.336;12.340;2023-04-15T00:17:42;7.20;99.90
2062;DHT22;11070;51.336;12.340;2023-04-15T00:20:08;7.30;99.90
2062;DHT22;11070;51.336;12.340;2023-04-15T00:22:34;7.30;99.90
2062;DHT22;11070;51.336;12.340;2023-04-15T00:25:00;7.30;99.90
2062;DHT22;11070;51.336;12.340;2023-04-15T00:27:26;7.30;99.90
2062;DHT22;11070;51.336;12.340;2023-04-15T00:29:52;7.20;99.90
2062;DHT22;11070;51.336;12.340;2023-04-15T00:32:18;7.20;99.90
2062;DHT22;11070;51.336;12.340;2023-04-15T00:34:44;7.20;99.90
2062;DHT22;11070;51.336;12.340;2023-04-15T00:37:10;7.30;99.90
2062;DHT22;11070;51.336;12.340;2023-04-15T00:39:37;7.30;99.90
2062;DHT22;11070;51.336;12.340;2023-04-15T00:42:05;7.30;99.90
2062;DHT22;11070;51.336;12.340;2023-04-15T00:44:31;7.30;99.90
2062;DHT22;11070;51.336;12.340;2023-04-15T00:46:59;7.30;99.90
2062;DHT22;11070;51.336;12.340;2023-04-15T00:49:24;7.40;99.90
2062;DHT22;11070;51.336;12.340;2023-04-15T00:51:51;7.40;99.90
2062;DHT22;11070;51.336;12.340;2023-04-15T00:54:17;7.40;99.90
2062;DHT22;11070;51.336;12.340;2023-04-15T00:56:42;7.30;99.90
2062;DHT22;11070;51.336;12.340;2023-04-15T00:59:08;7.30;99.90
2062;DHT22;11070;51.336;12.340;2023-04-15T01:01:35;7.40;99.90
2062;DHT22;11070;51.336;12.340;2023-04-15T01:04:01;7.40;99.90
2062;DHT22;11070;51.336;12.340;2023-04-15T01:06:28;7.40;99.90
2062;DHT22;11070;51.336;12.340;2023-04-15T01:08:54;7.40;99.90
2062;DHT22;11070;51.336;12.340;2023-04-15T01:11:22;7.50;99.90
2062;DHT22;11070;51.336;12.340;2023-04-15T01:13:51;7.40;99.90
2062;DHT22;11070;51.336;12.340;2023-04-15T01:16:18;7.50;99.90
2062;DHT22;11070;51.336;12.340;2023-04-15T01:18:44;7.40;99.90
2062;DHT22;11070;51.336;12.340;2023-04-15T01:21:10;7.40;99.90
2062;DHT22;11070;51.336;12.340;2023-04-15T01:23:37;7.40;99.90
2062;DHT22;11070;51.336;12.340;2023-04-15T01:26:03;7.40;99.90
2062;DHT22;11070;51.336;12.340;2023-04-15T01:28:30;7.40;99.90
2062;DHT22;11070;51.336;12.340;2023-04-15T01:31:11;7.40;99.90
2062;DHT22;11070;51.336;12.340;2023-04-15T01:33:39;7.40;99.90
2062;DHT22;11070;51.336;12.340;2023-04-15T01:36:06;7.40;99.90
2062;DHT22;11070;51.336;12.340;2023-04-15T01:38:33;7.40;99.90
2062;DHT22;11070;51.336;12.340;2023-04-15T01:40:58;7.40;99.90
2062;DHT22;11070;51.336;12.340;2023-04-15T01:43:25;7.30;99.90
2062;DHT22;11070;51.336;12.340;2023-04-15T01:45:51;7.30;99.90
2062;DHT22;11070;51.336;12.340;2023-04-15T01:48:17;7.30;99.90
2062;DHT22;11070;51.336;12.340;2023-04-15T01:50:43;7.30;99.90
2062;DHT22;11070;51.336;12.340;2023-04-15T01:53:09;7.30;99.90
2062;DHT22;11070;51.336;12.340;2023-04-15T01:55:35;7.30;99.90
2062;DHT22;11070;51.336;12.340;2023-04-15T01:58:01;7.30;99.90
2062;DHT22;11070;51.336;12.340;2023-04-15T02:00:27;7.30;99.90
2062;DHT22;11070;51.336;12.340;2023-04-15T02:02:53;7.30;99.90
2062;DHT22;11070;51.336;12.340;2023-04-15T02:05:19;7.30;99.90
2062;DHT22;11070;51.336;12.340;2023-04-15T02:07:44;7.30;99.90
2062;DHT22;11070;51.336;12.340;2023-04-15T02:10:10;7.30;99.90
2062;DHT22;11070;51.336;12.340;2023-04-15T02:12:38;7.20;99.90
2062;DHT22;11070;51.336;12.340;2023-04-15T02:15:04;7.20;99.90
2062;DHT22;11070;51.336;12.340;2023-04-15T02:17:32;7.20;99.90
2062;DHT22;11070;51.336;12.340;2023-04-15T02:19:59;7.20;99.90
2062;DHT22;11070;51.336;12.340;2023-04-15T02:22:25;7.20;99.90
2062;DHT22;11070;51.336;12.340;2023-04-15T02:24:50;7.20;99.90
2062;DHT22;11070;51.336;12.340;2023-04-15T02:27:16;7.20;99.90
2062;DHT22;11070;51.336;12.340;2023-04-15T02:29:44;7.20;99.90
2062;DHT22;11070;51.336;12.340;2023-04-15T02:32:12;7.30;99.90
2062;DHT22;11070;51.336;12.340;2023-04-15T02:34:39;7.30;99.90
2062;DHT22;11070;51.336;12.340;2023-04-15T02:37:06;7.30;99.90
2062;DHT22;11070;51.336;12.340;2023-04-15T02:39:32;7.30;99.90
2062;DHT22;11070;51.336;12.340;2023-04-15T02:41:58;7.30;99.90
2062;DHT22;11070;51.336;12.340;2023-04-15T02:44:25;7.30;99.90
2062;DHT22;11070;51.336;12.340;2023-04-15T02:46:52;7.30;99.90
2062;DHT22;11070;51.336;12.340;2023-04-15T02:49:19;7.20;99.90
2062;DHT22;11070;51.336;12.340;2023-04-15T02:51:45;7.20;99.90
2062;DHT22;11070;51.336;12.340;2023-04-15T02:54:14;7.10;99.90
2062;DHT22;11070;51.336;12.340;2023-04-15T02:56:40;7.20;99.90
2062;DHT22;11070;51.336;12.340;2023-04-15T02:59:05;7.20;99.90
2062;DHT22;11070;51.336;12.340;2023-04-15T03:01:31;7.20;99.90
2062;DHT22;11070;51.336;12.340;2023-04-15T03:03:57;7.20;99.90
2062;DHT22;11070;51.336;12.340;2023-04-15T03:06:22;7.20;99.90
2062;DHT22;11070;51.336;12.340;2023-04-15T03:08:49;7.10;99.90
2062;DHT22;11070;51.336;12.340;2023-04-15T03:11:15;7.10;99.90
2062;DHT22;11070;51.336;12.340;2023-04-15T03:13:41;7.20;99.90
2062;DHT22;11070;51.336;12.340;2023-04-15T03:16:08;7.20;99.90
2062;DHT22;11070;51.336;12.340;2023-04-15T03:18:34;7.20;99.90
2062;DHT22;11070;51.336;12.340;2023-04-15T03:21:00;7.30;99.90
2062;DHT22;11070;51.336;12.340;2023-04-15T03:23:25;7.20;99.90
2062;DHT22;11070;51.336;12.340;2023-04-15T03:25:51;7.20;99.90
2062;DHT22;11070;51.336;12.340;2023-04-15T03:28:20;7.30;99.90
2062;DHT22;11070;51.336;12.340;2023-04-15T03:30:45;7.30;99.90
2062;DHT22;11070;51.336;12.340;2023-04-15T03:33:11;7.20;99.90
2062;DHT22;11070;51.336;12.340;2023-04-15T03:35:37;7.20;99.90
2062;DHT22;11070;51.336;12.340;2023-04-15T03:38:03;7.20;99.90
2062;DHT22;11070;51.336;12.340;2023-04-15T03:40:28;7.10;99.90
2062;DHT22;11070;51.336;12.340;2023-04-15T03:42:54;7.10;99.90
2062;DHT22;11070;51.336;12.340;2023-04-15T03:45:20;7.10;99.90
2062;DHT22;11070;51.336;12.340;2023-04-15T03:47:48;7.10;99.90
2062;DHT22;11070;51.336;12.340;2023-04-15T03:50:14;7.10;99.90
2062;DHT22;11070;51.336;12.340;2023-04-15T03:52:40;7.10;99.90
2062;DHT22;11070;51.336;12.340;2023-04-15T03:55:06;7.10;99.90
2062;DHT22;11070;51.336;12.340;2023-04-15T03:57:32;7.00;99.90
2062;DHT22;11070;51.336;12.340;2023-04-15T04:00:03;7.00;99.90
2062;DHT22;11070;51.336;12.340;2023-04-15T04:02:29;7.10;99.90
2062;DHT22;11070;51.336;12.340;2023-04-15T04:04:54;7.10;99.90
2062;DHT22;11070;51.336;12.340;2023-04-15T04:07:22;7.00;99.90
2062;DHT22;11070;51.336;12.340;2023-04-15T04:09:49;7.00;99.90
2062;DHT22;11070;51.336;12.340;2023-04-15T04:12:14;7.00;99.90
2062;DHT22;11070;51.336;12.340;2023-04-15T04:14:40;7.00;99.90
2062;DHT22;11070;51.336;12.340;2023-04-15T04:17:06;7.00;99.90
2062;DHT22;11070;51.336;12.340;2023-04-15T04:19:32;7.10;99.90
2062;DHT22;11070;51.336;12.340;2023-04-15T04:21:57;7.10;99.90
2062;DHT22;11070;51.336;12.340;2023-04-15T04:24:23;7.10;99.90
2062;DHT22;11070;51.336;12.340;2023-04-15T04:26:49;7.10;99.90
2062;DHT22;11070;51.336;12.340;2023-04-15T04:29:15;7.00;99.90
2062;DHT22;11070;51.336;12.340;2023-04-15T04:31:41;7.00;99.90
2062;DHT22;11070;51.336;12.340;2023-04-15T04:34:06;7.00;99.90
2062;DHT22;11070;51.336;12.340;2023-04-15T04:36:32;7.00;99.90
2062;DHT22;11070;51.336;12.340;2023-04-15T04:38:58;7.00;99.90
2062;DHT22;11070;51.336;12.340;2023-04-15T04:41:23;7.00;99.90
2062;DHT22;11070;51.336;12.340;2023-04-15T04:43:49;7.00;99.90
2062;DHT22;11070;51.336;12.340;2023-04-15T04:46:15;7.00;99.90
2062;DHT22;11070;51.336;12.340;2023-04-15T04:48:40;7.00;99.90
2062;DHT22;11070;51.336;12.340;2023-04-15T04:51:06;7.00;99.90
2062;DHT22;11070;51.336;12.340;2023-04-15T04:53:32;7.00;99.90
2062;DHT22;11070;51.336;12.340;2023-04-15T04:55:58;6.90;99.90
2062;DHT22;11070;51.336;12.340;2023-04-15T04:58:24;7.00;99.90
2062;DHT22;11070;51.336;12.340;2023-04-15T05:00:49;7.10;99.90
2062;DHT22;11070;51.336;12.340;2023-04-15T05:03:16;7.10;99.90
2062;DHT22;11070;51.336;12.340;2023-04-15T05:05:41;7.10;99.90
2062;DHT22;11070;51.336;12.340;2023-04-15T05:08:07;7.00;99.90
2062;DHT22;11070;51.336;12.340;2023-04-15T05:10:33;7.00;99.90
2062;DHT22;11070;51.336;12.340;2023-04-15T05:12:59;7.10;99.90
2062;DHT22;11070;51.336;12.340;2023-04-15T05:15:24;7.10;99.90
2062;DHT22;11070;51.336;12.340;2023-04-15T05:17:50;7.10;99.90
2062;DHT22;11070;51.336;12.340;2023-04-15T05:20:16;7.10;99.90
2062;DHT22;11070;51.336;12.340;2023-04-15T05:22:42;7.10;99.90
2062;DHT22;11070;51.336;12.340;2023-04-15T05:25:08;7.20;99.90
2062;DHT22;11070;51.336;12.340;2023-04-15T05:27:34;7.20;99.90
2062;DHT22;11070;51.336;12.340;2023-04-15T05:30:00;7.10;99.90
2062;DHT22;11070;51.336;12.340;2023-04-15T05:32:25;7.10;99.90
2062;DHT22;11070;51.336;12.340;2023-04-15T05:34:51;7.20;99.90
2062;DHT22;11070;51.336;12.340;2023-04-15T05:37:17;7.20;99.90
2062;DHT22;11070;51.336;12.340;2023-04-15T05:39:45;7.20;99.90
2062;DHT22;11070;51.336;12.340;2023-04-15T05:42:11;7.20;99.90
2062;DHT22;11070;51.336;12.340;2023-04-15T05:44:36;7.20;99.90
2062;DHT22;11070;51.336;12.340;2023-04-15T05:47:02;7.20;99.90
2062;DHT22;11070;51.336;12.340;2023-04-15T05:49:28;7.30;99.90
2062;DHT22;11070;51.336;12.340;2023-04-15T05:51:54;7.30;99.90
2062;DHT22;11070;51.336;12.340;2023-04-15T05:54:20;7.20;99.90
2062;DHT22;11070;51.336;12.340;2023-04-15T05:56:48;7.20;99.90
2062;DHT22;11070;51.336;12.340;2023-04-15T05:59:13;7.20;99.90
2062;DHT22;11070;51.336;12.340;2023-04-15T06:01:39;7.20;99.90
2062;DHT22;11070;51.336;12.340;2023-04-15T06:04:05;7.20;99.90
2062;DHT22;11070;51.336;12.340;2023-04-15T06:06:31;7.20;99.90
2062;DHT22;11070;51.336;12.340;2023-04-15T06:08:57;7.20;99.90
2062;DHT22;11070;51.336;12.340;2023-04-15T06:11:23;7.30;99.90
2062;DHT22;11070;51.336;12.340;2023-04-15T06:13:48;7.30;99.90
2062;DHT22;11070;51.336;12.340;2023-04-15T06:16:14;7.30;99.90
2062;DHT22;11070;51.336;12.340;2023-04-15T06:18:40;7.30;99.90
2062;DHT22;11070;51.336;12.340;2023-04-15T06:21:06;7.40;99.90
2062;DHT22;11070;51.336;12.340;2023-04-15T06:23:34;7.40;99.90
2062;DHT22;11070;51.336;12.340;2023-04-15T06:26:01;7.40;99.90
2062;DHT22;11070;51.336;12.340;2023-04-15T06:28:26;7.40;99.90
2062;DHT22;11070;51.336;12.340;2023-04-15T06:30:53;7.40;99.90
2062;DHT22;11070;51.336;12.340;2023-04-15T06:33:19;7.50;99.90
2062;DHT22;11070;51.336;12.340;2023-04-15T06:35:45;7.50;99.90
2062;DHT22;11070;51.336;12.340;2023-04-15T06:38:14;7.50;99.90
2062;DHT22;11070;51.336;12.340;2023-04-15T06:40:40;7.50;99.90
2062;DHT22;11070;51.336;12.340;2023-04-15T06:43:06;7.50;99.90
2062;DHT22;11070;51.336;12.340;2023-04-15T06:45:32;7.50;99.90
2062;DHT22;11070;51.336;12.340;2023-04-15T06:47:58;7.60;99.90
2062;DHT22;11070;51.336;12.340;2023-04-15T06:50:23;7.60;99.90
2062;DHT22;11070;51.336;12.340;2023-04-15T06:52:49;7.60;99.90
2062;DHT22;11070;51.336;12.340;2023-04-15T06:55:15;7.60;99.90
2062;DHT22;11070;51.336;12.340;2023-04-15T06:57:41;7.60;99.90
2062;DHT22;11070;51.336;12.340;2023-04-15T07:00:07;7.60;99.90
2062;DHT22;11070;51.336;12.340;2023-04-15T07:02:33;7.60;99.90
2062;DHT22;11070;51.336;12.340;2023-04-15T07:04:58;7.60;99.90
2062;DHT22;11070;51.336;12.340;2023-04-15T07:07:24;7.60;99.90
2062;DHT22;11070;51.336;12.340;2023-04-15T07:09:50;7.70;99.90
2062;DHT22;11070;51.336;12.340;2023-04-15T07:12:18;7.70;99.90
2062;DHT22;11070;51.336;12.340;2023-04-15T07:14:43;7.80;99.90
2062;DHT22;11070;51.336;12.340;2023-04-15T07:17:09;7.70;99.90
2062;DHT22;11070;51.336;12.340;2023-04-15T07:19:36;7.70;99.90
2062;DHT22;11070;51.336;12.340;2023-04-15T07:22:01;7.70;99.90
2062;DHT22;11070;51.336;12.340;2023-04-15T07:24:30;7.70;99.90
2062;DHT22;11070;51.336;12.340;2023-04-15T07:26:56;7.70;99.90
2062;DHT22;11070;51.336;12.340;2023-04-15T07:29:22;7.70;99.90
2062;DHT22;11070;51.336;12.340;2023-04-15T07:31:48;7.70;99.90
2062;DHT22;11070;51.336;12.340;2023-04-15T07:34:14;7.80;99.90
2062;DHT22;11070;51.336;12.340;2023-04-15T07:36:41;7.80;99.90
2062;DHT22;11070;51.336;12.340;2023-04-15T07:39:06;7.80;99.90
2062;DHT22;11070;51.336;12.340;2023-04-15T07:41:32;7.90;99.90
2062;DHT22;11070;51.336;12.340;2023-04-15T07:43:58;7.90;99.90
2062;DHT22;11070;51.336;12.340;2023-04-15T07:46:25;7.90;99.90
2062;DHT22;11070;51.336;12.340;2023-04-15T07:48:52;7.90;99.90
2062;DHT22;11070;51.336;12.340;2023-04-15T07:51:18;7.90;99.90
2062;DHT22;11070;51.336;12.340;2023-04-15T07:53:46;8.00;99.90
2062;DHT22;11070;51.336;12.340;2023-04-15T07:56:12;8.00;99.90
2062;DHT22;11070;51.336;12.340;2023-04-15T07:58:37;8.10;99.90
2062;DHT22;11070;51.336;12.340;2023-04-15T08:01:04;8.10;99.90
2062;DHT22;11070;51.336;12.340;2023-04-15T08:03:29;8.10;99.90
2062;DHT22;11070;51.336;12.340;2023-04-15T08:05:56;8.10;99.90
2062;DHT22;11070;51.336;12.340;2023-04-15T08:08:21;8.00;99.90
2062;DHT22;11070;51.336;12.340;2023-04-15T08:10:47;8.10;99.90
2062;DHT22;11070;51.336;12.340;2023-04-15T08:13:13;8.10;99.90
2062;DHT22;11070;51.336;12.340;2023-04-15T08:15:39;8.10;99.90
2062;DHT22;11070;51.336;12.340;2023-04-15T08:18:04;8.10;99.90
2062;DHT22;11070;51.336;12.340;2023-04-15T08:20:30;8.20;99.90
2062;DHT22;11070;51.336;12.340;2023-04-15T08:22:56;8.20;99.90
2062;DHT22;11070;51.336;12.340;2023-04-15T08:25:22;8.10;99.90
2062;DHT22;11070;51.336;12.340;2023-04-15T08:27:48;8.20;99.90
2062;DHT22;11070;51.336;12.340;2023-04-15T08:30:14;8.20;99.90
2062;DHT22;11070;51.336;12.340;2023-04-15T08:32:42;8.30;99.90
2062;DHT22;11070;51.336;12.340;2023-04-15T08:35:10;8.30;99.90
2062;DHT22;11070;51.336;12.340;2023-04-15T08:37:36;8.30;99.90
2062;DHT22;11070;51.336;12.340;2023-04-15T08:40:03;8.30;99.90
2062;DHT22;11070;51.336;12.340;2023-04-15T08:42:43;8.30;99.90
2062;DHT22;11070;51.336;12.340;2023-04-15T08:45:12;8.30;99.90
2062;DHT22;11070;51.336;12.340;2023-04-15T08:47:39;8.30;99.90
2062;DHT22;11070;51.336;12.340;2023-04-15T08:50:08;8.30;99.90
2062;DHT22;11070;51.336;12.340;2023-04-15T08:52:34;8.40;99.90
2062;DHT22;11070;51.336;12.340;2023-04-15T08:55:01;8.40;99.90
2062;DHT22;11070;51.336;12.340;2023-04-15T08:57:28;8.40;99.90
2062;DHT22;11070;51.336;12.340;2023-04-15T08:59:57;8.50;99.90
2062;DHT22;11070;51.336;12.340;2023-04-15T09:02:23;8.50;99.90
2062;DHT22;11070;51.336;12.340;2023-04-15T09:04:50;8.70;99.90
2062;DHT22;11070;51.336;12.340;2023-04-15T09:07:16;8.70;99.90
2062;DHT22;11070;51.336;12.340;2023-04-15T09:09:42;8.70;99.90
2062;DHT22;11070;51.336;12.340;2023-04-15T09:12:08;8.70;99.90
2062;DHT22;11070;51.336;12.340;2023-04-15T09:14:33;8.80;99.90
2062;DHT22;11070;51.336;12.340;2023-04-15T09:17:03;8.80;99.90
2062;DHT22;11070;51.336;12.340;2023-04-15T09:19:30;8.90;99.90
2062;DHT22;11070;51.336;12.340;2023-04-15T09:21:57;8.90;99.90
2062;DHT22;11070;51.336;12.340;2023-04-15T09:24:23;8.90;99.90
2062;DHT22;11070;51.336;12.340;2023-04-15T09:26:52;9.00;99.90
2062;DHT22;11070;51.336;12.340;2023-04-15T09:29:19;9.00;99.90
2062;DHT22;11070;51.336;12.340;2023-04-15T09:31:44;9.00;99.90
2062;DHT22;11070;51.336;12.340;2023-04-15T09:34:10;9.10;99.90
2062;DHT22;11070;51.336;12.340;2023-04-15T09:39:11;9.20;99.90
2062;DHT22;11070;51.336;12.340;2023-04-15T09:41:37;9.30;99.90
2062;DHT22;11070;51.336;12.340;2023-04-15T09:44:03;9.30;99.90
2062;DHT22;11070;51.336;12.340;2023-04-15T09:46:44;9.40;99.90
2062;DHT22;11070;51.336;12.340;2023-04-15T09:49:11;9.40;99.90
2062;DHT22;11070;51.336;12.340;2023-04-15T09:51:38;9.40;99.90
2062;DHT22;11070;51.336;12.340;2023-04-15T09:54:04;9.50;99.90
2062;DHT22;11070;51.336;12.340;2023-04-15T09:56:37;9.40;99.90
2062;DHT22;11070;51.336;12.340;2023-04-15T09:59:06;9.30;99.90
2062;DHT22;11070;51.336;12.340;2023-04-15T10:01:32;9.40;99.90
2062;DHT22;11070;51.336;12.340;2023-04-15T10:03:58;9.50;99.90
2062;DHT22;11070;51.336;12.340;2023-04-15T10:06:27;9.50;99.90
2062;DHT22;11070;51.336;12.340;2023-04-15T10:08:54;9.60;99.90
2062;DHT22;11070;51.336;12.340;2023-04-15T10:11:21;9.60;99.90
2062;DHT22;11070;51.336;12.340;2023-04-15T10:13:49;9.60;99.90
2062;DHT22;11070;51.336;12.340;2023-04-15T10:16:18;9.60;99.90
2062;DHT22;11070;51.336;12.340;2023-04-15T10:18:46;9.70;99.90
2062;DHT22;11070;51.336;12.340;2023-04-15T10:21:12;9.70;99.90
2062;DHT22;11070;51.336;12.340;2023-04-15T10:23:41;9.80;99.90
2062;DHT22;11070;51.336;12.340;2023-04-15T10:26:07;9.80;99.90
2062;DHT22;11070;51.336;12.340;2023-04-15T10:28:34;9.90;99.90
2062;DHT22;11070;51.336;12.340;2023-04-15T10:31:00;9.90;99.90
2062;DHT22;11070;51.336;12.340;2023-04-15T10:33:27;9.90;99.90
2062;DHT22;11070;51.336;12.340;2023-04-15T10:35:54;9.90;99.90
2062;DHT22;11070;51.336;12.340;2023-04-15T10:38:37;10.00;99.90
2062;DHT22;11070;51.336;12.340;2023-04-15T10:44:02;9.90;99.90
2062;DHT22;11070;51.336;12.340;2023-04-15T10:46:44;9.90;99.90
2062;DHT22;11070;51.336;12.340;2023-04-15T10:49:14;10.00;99.90
2062;DHT22;11070;51.336;12.340;2023-04-15T10:51:43;10.00;99.90
2062;DHT22;11070;51.336;12.340;2023-04-15T10:59:37;10.10;99.90
2062;DHT22;11070;51.336;12.340;2023-04-15T11:02:05;10.10;99.90
2062;DHT22;11070;51.336;12.340;2023-04-15T11:05:47;10.20;99.90
2062;DHT22;11070;51.336;12.340;2023-04-15T11:07:50;10.20;99.90
2062;DHT22;11070;51.336;12.340;2023-04-15T11:12:42;10.40;99.90
2062;DHT22;11070;51.336;12.340;2023-04-15T11:17:50;10.50;99.90
2062;DHT22;11070;51.336;12.340;2023-04-15T11:20:16;10.60;99.90
2062;DHT22;11070;51.336;12.340;2023-04-15T11:22:49;10.60;99.90
2062;DHT22;11070;51.336;12.340;2023-04-15T11:25:27;10.70;99.90
2062;DHT22;11070;51.336;12.340;2023-04-15T11:27:54;10.70;99.90
2062;DHT22;11070;51.336;12.340;2023-04-15T11:30:22;10.80;99.90
2062;DHT22;11070;51.336;12.340;2023-04-15T11:32:48;10.80;99.90
2062;DHT22;11070;51.336;12.340;2023-04-15T11:35:16;10.80;99.90
2062;DHT22;11070;51.336;12.340;2023-04-15T11:37:43;10.80;99.90
2062;DHT22;11070;51.336;12.340;2023-04-15T11:40:09;10.80;99.90
2062;DHT22;11070;51.336;12.340;2023-04-15T11:42:36;10.80;99.90
2062;DHT22;11070;51.336;12.340;2023-04-15T11:45:13;10.80;99.90
2062;DHT22;11070;51.336;12.340;2023-04-15T11:47:40;10.80;99.90
2062;DHT22;11070;51.336;12.340;2023-04-15T11:50:33;10.80;99.90
2062;DHT22;11070;51.336;12.340;2023-04-15T11:53:03;10.80;99.90
2062;DHT22;11070;51.336;12.340;2023-04-15T11:55:30;10.80;99.90
2062;DHT22;11070;51.336;12.340;2023-04-15T11:58:13;10.70;99.90
2062;DHT22;11070;51.336;12.340;2023-04-15T12:00:41;10.60;99.90
2062;DHT22;11070;51.336;12.340;2023-04-15T12:03:23;10.60;99.90
2062;DHT22;11070;51.336;12.340;2023-04-15T12:13:54;10.70;99.90
2062;DHT22;11070;51.336;12.340;2023-04-15T12:16:22;10.70;99.90
2062;DHT22;11070;51.336;12.340;2023-04-15T12:18:52;10.80;99.90
2062;DHT22;11070;51.336;12.340;2023-04-15T12:21:21;10.80;99.90
2062;DHT22;11070;51.336;12.340;2023-04-15T12:23:52;10.90;99.90
2062;DHT22;11070;51.336;12.340;2023-04-15T12:26:25;10.80;99.90
2062;DHT22;11070;51.336;12.340;2023-04-15T12:28:59;10.90;99.90
2062;DHT22;11070;51.336;12.340;2023-04-15T12:31:25;11.10;99.90
2062;DHT22;11070;51.336;12.340;2023-04-15T12:33:54;11.10;99.90
2062;DHT22;11070;51.336;12.340;2023-04-15T12:36:20;11.10;99.90
2062;DHT22;11070;51.336;12.340;2023-04-15T12:38:46;11.10;99.90
2062;DHT22;11070;51.336;12.340;2023-04-15T12:41:11;11.20;99.90
2062;DHT22;11070;51.336;12.340;2023-04-15T12:43:37;11.20;99.90
2062;DHT22;11070;51.336;12.340;2023-04-15T12:46:03;11.20;99.90
2062;DHT22;11070;51.336;12.340;2023-04-15T12:48:29;11.20;99.90
2062;DHT22;11070;51.336;12.340;2023-04-15T12:50:56;11.30;99.90
2062;DHT22;11070;51.336;12.340;2023-04-15T12:53:21;11.30;99.90
2062;DHT22;11070;51.336;12.340;2023-04-15T12:55:47;11.30;99.90
2062;DHT22;11070;51.336;12.340;2023-04-15T12:58:13;11.40;99.90
2062;DHT22;11070;51.336;12.340;2023-04-15T13:00:38;11.50;99.90
2062;DHT22;11070;51.336;12.340;2023-04-15T13:03:04;11.50;99.90
2062;DHT22;11070;51.336;12.340;2023-04-15T13:05:29;11.60;99.90
2062;DHT22;11070;51.336;12.340;2023-04-15T13:07:55;11.60;99.90
2062;DHT22;11070;51.336;12.340;2023-04-15T13:10:21;11.50;99.90
2062;DHT22;11070;51.336;12.340;2023-04-15T13:12:51;11.50;99.90
2062;DHT22;11070;51.336;12.340;2023-04-15T13:15:18;11.50;99.90
2062;DHT22;11070;51.336;12.340;2023-04-15T13:17:45;11.50;99.90
2062;DHT22;11070;51.336;12.340;2023-04-15T13:20:11;11.60;99.90
2062;DHT22;11070;51.336;12.340;2023-04-15T13:22:37;11.60;99.90
2062;DHT22;11070;51.336;12.340;2023-04-15T13:25:04;11.50;99.90
2062;DHT22;11070;51.336;12.340;2023-04-15T13:27:29;11.50;99.90
2062;DHT22;11070;51.336;12.340;2023-04-15T13:30:01;11.50;99.90
2062;DHT22;11070;51.336;12.340;2023-04-15T13:32:35;11.60;99.90
2062;DHT22;11070;51.336;12.340;2023-04-15T13:35:16;11.50;99.90
2062;DHT22;11070;51.336;12.340;2023-04-15T13:37:53;11.50;99.90
2062;DHT22;11070;51.336;12.340;2023-04-15T13:40:47;11.50;99.90
2062;DHT22;11070;51.336;12.340;2023-04-15T13:43:22;11.50;99.90
2062;DHT22;11070;51.336;12.340;2023-04-15T13:46:04;11.40;99.90
2062;DHT22;11070;51.336;12.340;2023-04-15T13:49:13;11.40;99.90
2062;DHT22;11070;51.336;12.340;2023-04-15T13:51:47;11.50;99.90
2062;DHT22;11070;51.336;12.340;2023-04-15T13:54:27;11.50;99.90
2062;DHT22;11070;51.336;12.340;2023-04-15T13:56:54;11.40;99.90
2062;DHT22;11070;51.336;12.340;2023-04-15T13:59:24;11.50;99.90
2062;DHT22;11070;51.336;12.340;2023-04-15T14:02:13;11.50;99.90
2062;DHT22;11070;51.336;12.340;2023-04-15T14:04:43;11.50;99.90
2062;DHT22;11070;51.336;12.340;2023-04-15T14:07:09;11.50;99.90
2062;DHT22;11070;51.336;12.340;2023-04-15T14:09:44;11.60;99.90
2062;DHT22;11070;51.336;12.340;2023-04-15T14:12:21;11.60;99.90
2062;DHT22;11070;51.336;12.340;2023-04-15T14:14:56;11.60;99.90
2062;DHT22;11070;51.336;12.340;2023-04-15T14:17:22;11.50;99.90
2062;DHT22;11070;51.336;12.340;2023-04-15T14:19:56;11.60;99.90
2062;DHT22;11070;51.336;12.340;2023-04-15T14:22:34;11.60;99.90
2062;DHT22;11070;51.336;12.340;2023-04-15T14:25:04;11.50;99.90
2062;DHT22;11070;51.336;12.340;2023-04-15T14:27:30;11.50;99.90
2062;DHT22;11070;51.336;12.340;2023-04-15T14:29:56;11.40;99.90
2062;DHT22;11070;51.336;12.340;2023-04-15T14:32:24;11.50;99.90
2062;DHT22;11070;51.336;12.340;2023-04-15T14:34:50;11.40;99.90
2062;DHT22;11070;51.336;12.340;2023-04-15T14:37:16;11.40;99.90
2062;DHT22;11070;51.336;12.340;2023-04-15T14:39:41;11.40;99.90
2062;DHT22;11070;51.336;12.340;2023-04-15T14:42:07;11.30;99.90
2062;DHT22;11070;51.336;12.340;2023-04-15T14:44:33;11.40;99.90
2062;DHT22;11070;51.336;12.340;2023-04-15T14:46:58;11.20;99.90
2062;DHT22;11070;51.336;12.340;2023-04-15T14:49:24;11.30;99.90
2062;DHT22;11070;51.336;12.340;2023-04-15T14:51:50;11.20;99.90
2062;DHT22;11070;51.336;12.340;2023-04-15T14:54:16;11.20;99.90
2062;DHT22;11070;51.336;12.340;2023-04-15T14:56:41;11.30;99.90
2062;DHT22;11070;51.336;12.340;2023-04-15T14:59:07;11.30;99.90
2062;DHT22;11070;51.336;12.340;2023-04-15T15:01:33;11.30;99.90
2062;DHT22;11070;51.336;12.340;2023-04-15T15:03:59;11.30;99.90
2062;DHT22;11070;51.336;12.340;2023-04-15T15:06:25;11.30;99.90
2062;DHT22;11070;51.336;12.340;2023-04-15T15:08:50;11.40;99.90
2062;DHT22;11070;51.336;12.340;2023-04-15T15:11:16;11.40;99.90
2062;DHT22;11070;51.336;12.340;2023-04-15T15:13:41;11.50;99.90
2062;DHT22;11070;51.336;12.340;2023-04-15T15:16:07;11.50;99.90
2062;DHT22;11070;51.336;12.340;2023-04-15T15:18:34;11.60;99.90
2062;DHT22;11070;51.336;12.340;2023-04-15T15:21:00;11.60;99.90
2062;DHT22;11070;51.336;12.340;2023-04-15T15:23:26;11.60;99.90
2062;DHT22;11070;51.336;12.340;2023-04-15T15:25:51;11.60;99.90
2062;DHT22;11070;51.336;12.340;2023-04-15T15:28:17;11.60;99.90
2062;DHT22;11070;51.336;12.340;2023-04-15T15:30:43;11.60;99.90
2062;DHT22;11070;51.336;12.340;2023-04-15T15:33:08;11.50;99.90
2062;DHT22;11070;51.336;12.340;2023-04-15T15:35:34;11.40;99.90
2062;DHT22;11070;51.336;12.340;2023-04-15T15:38:00;11.50;99.90
2062;DHT22;11070;51.336;12.340;2023-04-15T15:40:26;11.60;99.90
2062;DHT22;11070;51.336;12.340;2023-04-15T15:42:51;11.60;99.90
2062;DHT22;11070;51.336;12.340;2023-04-15T15:45:17;11.60;99.90
2062;DHT22;11070;51.336;12.340;2023-04-15T15:47:43;11.70;99.90
2062;DHT22;11070;51.336;12.340;2023-04-15T15:50:09;11.70;99.90
2062;DHT22;11070;51.336;12.340;2023-04-15T15:52:34;11.70;99.90
2062;DHT22;11070;51.336;12.340;2023-04-15T15:55:00;11.80;99.90
2062;DHT22;11070;51.336;12.340;2023-04-15T15:57:26;11.80;99.90
2062;DHT22;11070;51.336;12.340;2023-04-15T15:59:52;11.80;99.90
2062;DHT22;11070;51.336;12.340;2023-04-15T16:02:17;11.80;99.90
2062;DHT22;11070;51.336;12.340;2023-04-15T16:04:43;11.80;99.90
2062;DHT22;11070;51.336;12.340;2023-04-15T16:07:09;11.80;99.90